createdAt,value
2019-01-19T00:00:27.995Z,29.23
2019-01-19T00:05:14.345Z,37.13
2019-01-19T00:09:58.755Z,33.33
2019-01-19T00:14:22.321Z,38.50
2019-01-19T00:19:06.483Z,37.47
2019-01-19T00:23:43.071Z,31.67
2019-01-19T00:28:02.451Z,31.00
2019-01-19T00:32:40.938Z,40.53
2019-01-19T00:37:18.959Z,38.63
2019-01-19T00:41:57.202Z,34.50
2019-01-19T00:46:37.788Z,36.03
2019-01-19T00:51:21.272Z,39.20
2019-01-19T00:55:53.624Z,39.73
2019-01-19T01:00:03.998Z,37.67
2019-01-19T01:04:47.167Z,45.03
2019-01-19T01:09:09.598Z,52.73
2019-01-19T01:13:33.234Z,40.07
2019-01-19T01:17:50.241Z,40.83
2019-01-19T01:22:49.841Z,40.70
2019-01-19T01:27:31.053Z,43.80
2019-01-19T01:31:57.225Z,43.43
2019-01-19T01:36:38.047Z,33.67
2019-01-19T01:41:21.806Z,41.57
2019-01-19T01:45:48.626Z,47.30
2019-01-19T01:50:26.371Z,36.60
2019-01-19T01:54:48.109Z,40.37
2019-01-19T01:59:30.765Z,37.13
2019-01-19T02:03:58.604Z,41.50
2019-01-19T02:08:36.055Z,42.00
2019-01-19T02:17:47.531Z,42.17
2019-01-19T02:22:40.826Z,47.13
2019-01-19T02:27:09.654Z,46.97
2019-01-19T02:31:54.238Z,47.33
2019-01-19T02:36:16.231Z,59.20
2019-01-19T02:41:15.328Z,59.17
2019-01-19T02:46:00.168Z,64.73
2019-01-19T02:50:38.992Z,65.77
2019-01-19T02:55:17.304Z,52.63
2019-01-19T02:59:52.227Z,50.63
2019-01-19T03:04:22.544Z,52.73
2019-01-19T03:08:51.372Z,44.37
2019-01-19T03:13:08.176Z,39.43
2019-01-19T03:17:43.896Z,48.30
2019-01-19T03:22:20.786Z,47.63
2019-01-19T03:26:54.653Z,46.23
2019-01-19T03:31:42.778Z,47.70
2019-01-19T03:36:35.940Z,48.90
2019-01-19T03:41:04.043Z,50.50
2019-01-19T03:45:31.902Z,53.90
2019-01-19T03:50:15.657Z,50.40
2019-01-19T03:54:36.651Z,48.80
2019-01-19T03:59:30.486Z,46.07
2019-01-19T04:04:04.064Z,53.40
2019-01-19T04:08:39.624Z,48.57
2019-01-19T04:13:10.418Z,52.70
2019-01-19T04:18:10.037Z,51.87
2019-01-19T04:22:35.565Z,50.73
2019-01-19T04:26:44.595Z,54.07
2019-01-19T04:30:50.982Z,46.37
2019-01-19T04:34:57.822Z,49.27
2019-01-19T04:39:08.246Z,50.80
2019-01-19T04:43:14.537Z,51.03
2019-01-19T04:47:21.368Z,49.87
2019-01-19T04:51:28.552Z,44.63
2019-01-19T04:55:35.088Z,48.63
2019-01-19T04:59:41.431Z,44.30
2019-01-19T05:03:47.854Z,50.57
2019-01-19T05:07:54.613Z,53.33
2019-01-19T05:12:01.010Z,51.50
2019-01-19T05:16:07.466Z,53.23
2019-01-19T05:20:14.202Z,43.73
2019-01-19T05:24:21.869Z,47.77
2019-01-19T05:28:28.342Z,32.00
2019-01-19T05:32:34.765Z,43.73
2019-01-19T05:36:41.196Z,45.40
2019-01-19T05:40:49.132Z,43.23
2019-01-19T05:44:55.612Z,42.30
2019-01-19T05:49:01.921Z,43.63
2019-01-19T05:53:08.339Z,39.57
2019-01-19T05:57:15.604Z,47.00
2019-01-19T06:01:23.077Z,46.43
2019-01-19T06:05:29.444Z,42.03
2019-01-19T06:09:36.800Z,41.20
2019-01-19T06:13:43.997Z,48.50
2019-01-19T06:17:51.377Z,42.90
2019-01-19T06:22:01.995Z,47.00
2019-01-19T06:26:08.458Z,40.40
2019-01-19T06:30:20.659Z,41.33
2019-01-19T06:34:46.637Z,42.20
2019-01-19T06:38:52.895Z,41.37
2019-01-19T06:42:59.284Z,36.77
2019-01-19T06:47:05.634Z,43.53
2019-01-19T06:51:12.100Z,40.20
2019-01-19T06:55:21.229Z,49.77
2019-01-19T06:59:27.603Z,48.97
2019-01-19T07:03:34.443Z,48.93
2019-01-19T07:07:40.829Z,50.73
2019-01-19T07:11:47.506Z,65.57
2019-01-19T07:15:53.947Z,64.17
2019-01-19T07:20:01.181Z,63.07
2019-01-19T07:24:07.674Z,48.97
2019-01-19T07:28:14.044Z,50.53
2019-01-19T07:32:20.538Z,49.43
2019-01-19T07:40:37.088Z,43.70
2019-01-19T07:44:43.473Z,56.00
2019-01-19T07:48:49.860Z,67.77
2019-01-19T07:52:57.048Z,49.80
2019-01-19T07:57:03.600Z,49.50
2019-01-19T08:01:09.906Z,48.80
2019-01-19T08:05:16.497Z,68.23
2019-01-19T08:09:22.921Z,78.33
2019-01-19T08:13:29.388Z,63.53
2019-01-19T08:17:35.674Z,73.97
2019-01-19T08:21:44.683Z,68.50
2019-01-19T08:25:52.294Z,70.63
2019-01-19T08:29:58.759Z,52.30
2019-01-19T08:34:06.032Z,66.73
2019-01-19T08:38:12.627Z,79.93
2019-01-19T08:42:19.744Z,74.27
2019-01-19T08:46:27.257Z,62.87
2019-01-19T08:50:33.657Z,63.23
2019-01-19T08:54:42.178Z,70.60
2019-01-19T08:58:48.639Z,64.07
2019-01-19T09:02:57.236Z,63.10
2019-01-19T09:07:04.059Z,61.90
2019-01-19T09:11:10.680Z,67.60
2019-01-19T09:15:22.128Z,58.63
2019-01-19T09:19:31.265Z,54.47
2019-01-19T09:23:44.919Z,57.40
2019-01-19T09:27:52.680Z,49.53
2019-01-19T09:36:38.980Z,54.23
2019-01-19T09:40:47.415Z,54.27
2019-01-19T09:44:54.216Z,53.43
2019-01-19T09:49:00.559Z,50.40
2019-01-19T09:53:07.209Z,47.53
2019-01-19T09:57:13.479Z,59.20
2019-01-19T10:01:19.922Z,62.23
2019-01-19T10:05:26.335Z,66.27
2019-01-19T10:09:33.855Z,54.20
2019-01-19T10:13:40.139Z,57.07
2019-01-19T10:17:48.331Z,60.77
2019-01-19T10:21:55.596Z,52.73
2019-01-19T10:26:03.074Z,57.97
2019-01-19T10:30:13.229Z,51.83
2019-01-19T10:34:21.545Z,66.00
2019-01-19T10:38:28.058Z,64.43
2019-01-19T10:42:35.161Z,48.67
2019-01-19T10:46:41.534Z,53.80
2019-01-19T10:50:48.254Z,53.20
2019-01-19T10:54:54.594Z,53.20
2019-01-19T10:59:02.342Z,52.43
2019-01-19T11:03:08.657Z,55.67
2019-01-19T11:07:15.295Z,48.33
2019-01-19T11:11:22.576Z,48.57
2019-01-19T11:15:30.713Z,46.47
2019-01-19T11:19:37.074Z,49.80
2019-01-19T11:23:43.581Z,54.57
2019-01-19T11:27:49.921Z,44.27
2019-01-19T11:31:57.637Z,22.37
2019-01-19T11:36:04.139Z,41.10
2019-01-19T11:40:16.361Z,52.87
2019-01-19T11:44:22.701Z,44.83
2019-01-19T11:48:30.016Z,43.27
2019-01-19T11:52:36.324Z,44.77
2019-01-19T11:56:43.172Z,46.50
2019-01-19T12:00:49.513Z,50.43
2019-01-19T12:04:56.531Z,32.80
2019-01-19T12:09:05.679Z,45.67
2019-01-19T12:13:15.198Z,38.80
2019-01-19T12:17:21.501Z,40.30
2019-01-19T12:21:28.523Z,42.20
2019-01-19T12:25:34.873Z,37.43
2019-01-19T12:29:42.648Z,43.67
2019-01-19T12:33:48.912Z,40.73
2019-01-19T12:37:58.199Z,40.70
2019-01-19T12:42:04.652Z,32.13
2019-01-19T12:46:12.219Z,37.20
2019-01-19T12:50:23.169Z,39.00
2019-01-19T12:54:31.145Z,38.80
2019-01-19T12:58:37.576Z,37.77
2019-01-19T13:02:45.154Z,30.80
2019-01-19T13:06:58.085Z,44.23
2019-01-19T13:11:19.553Z,42.70
2019-01-19T13:15:57.279Z,42.63
2019-01-19T13:20:33.148Z,45.90
2019-01-19T13:25:17.553Z,45.33
2019-01-19T13:29:58.683Z,42.13
2019-01-19T13:34:40.462Z,40.57
2019-01-19T13:39:22.224Z,40.13
2019-01-19T13:44:09.915Z,41.10
2019-01-19T13:48:50.349Z,37.87
2019-01-19T13:53:58.807Z,38.23
2019-01-19T13:58:36.526Z,43.70
2019-01-19T14:03:22.598Z,33.67
2019-01-19T14:08:06.885Z,40.13
2019-01-19T14:12:40.952Z,38.60
2019-01-19T14:17:43.526Z,37.43
2019-01-19T14:22:29.363Z,36.83
2019-01-19T14:27:08.944Z,32.33
2019-01-19T14:31:47.092Z,38.70
2019-01-19T14:36:38.460Z,46.50
2019-01-19T14:40:58.090Z,37.10
2019-01-19T14:45:45.472Z,33.50
2019-01-19T14:50:06.502Z,35.33
2019-01-19T14:54:51.593Z,31.40
2019-01-19T14:59:23.740Z,34.30
2019-01-19T15:04:05.002Z,35.00
2019-01-19T15:08:30.212Z,40.67
2019-01-19T15:13:11.080Z,40.50
2019-01-19T15:17:58.482Z,41.43
2019-01-19T15:22:59.675Z,41.67
2019-01-19T15:27:21.242Z,44.57
2019-01-19T15:32:15.096Z,41.13
2019-01-19T15:37:12.320Z,46.03
2019-01-19T15:41:55.621Z,43.63
2019-01-19T15:46:26.714Z,49.13
2019-01-19T15:51:02.342Z,47.80
2019-01-19T15:55:45.451Z,48.27
2019-01-19T16:00:33.844Z,51.50
2019-01-19T16:05:12.606Z,51.60
2019-01-19T16:10:14.069Z,69.33
2019-01-19T16:14:51.321Z,56.13
2019-01-19T16:19:47.853Z,65.57
2019-01-19T16:24:56.276Z,62.93
2019-01-19T16:29:20.978Z,69.30
2019-01-19T16:34:37.621Z,76.13
2019-01-19T16:39:25.508Z,92.03
2019-01-19T16:43:58.003Z,83.70
2019-01-19T16:48:29.385Z,98.13
2019-01-19T16:52:55.800Z,85.23
2019-01-19T16:57:26.512Z,101.47
2019-01-19T17:02:12.904Z,96.20
2019-01-19T17:06:40.574Z,106.23
2019-01-19T17:11:12.118Z,100.00
2019-01-19T17:15:52.090Z,113.50
2019-01-19T17:20:18.700Z,122.07
2019-01-19T17:24:49.997Z,126.93
2019-01-19T17:29:33.603Z,139.53
2019-01-19T17:34:06.460Z,115.00
2019-01-19T17:38:46.202Z,120.60
2019-01-19T17:43:42.884Z,114.97
2019-01-19T17:48:56.083Z,119.03
2019-01-19T17:53:49.592Z,121.17
2019-01-19T18:03:35.345Z,120.20
2019-01-19T18:08:32.963Z,115.43
2019-01-19T18:13:32.713Z,120.13
2019-01-19T18:18:30.998Z,114.87
2019-01-19T18:23:21.107Z,128.07
2019-01-19T18:28:12.806Z,110.37
2019-01-19T18:32:55.015Z,119.77
2019-01-19T18:37:52.620Z,120.30
2019-01-19T18:42:28.909Z,122.27
2019-01-19T18:47:09.780Z,117.17
2019-01-19T18:51:36.463Z,123.30
2019-01-19T18:56:23.140Z,118.67
2019-01-19T19:01:07.932Z,134.50
2019-01-19T19:05:47.832Z,132.27
2019-01-19T19:10:25.963Z,121.23
2019-01-19T19:15:26.363Z,124.30
2019-01-19T19:20:20.297Z,116.17
2019-01-19T19:24:51.631Z,116.03
2019-01-19T19:29:26.728Z,109.67
2019-01-19T19:33:45.481Z,106.73
2019-01-19T19:38:41.914Z,112.33
2019-01-19T19:43:28.975Z,107.63
2019-01-19T19:48:16.063Z,113.27
2019-01-19T19:52:27.895Z,103.77
2019-01-19T19:56:29.051Z,131.23
2019-01-19T20:00:36.727Z,146.83
2019-01-19T20:04:43.328Z,140.73
2019-01-19T20:08:51.256Z,142.23
2019-01-19T20:12:57.604Z,171.90
2019-01-19T20:17:05.824Z,195.47
2019-01-19T20:21:12.262Z,202.47
2019-01-19T20:25:18.755Z,189.13
2019-01-19T20:29:26.179Z,229.23
2019-01-19T20:33:33.663Z,238.17
2019-01-19T20:37:39.911Z,227.53
2019-01-19T20:41:47.553Z,205.10
2019-01-19T20:45:54.197Z,230.90
2019-01-19T20:50:02.520Z,235.73
2019-01-19T20:54:09.050Z,209.87
2019-01-19T20:58:15.722Z,216.17
2019-01-19T21:02:22.093Z,206.50
2019-01-19T21:06:28.728Z,228.93
2019-01-19T21:10:35.803Z,214.03
2019-01-19T21:14:42.339Z,215.83
2019-01-19T21:18:48.711Z,216.17
2019-01-19T21:22:55.709Z,219.67
2019-01-19T21:27:02.207Z,214.17
2019-01-19T21:31:08.810Z,230.57
2019-01-19T21:35:15.107Z,225.77
2019-01-19T21:39:21.705Z,244.30
2019-01-19T21:43:29.687Z,234.27
2019-01-19T21:47:37.903Z,228.67
2019-01-19T21:51:44.208Z,222.07
2019-01-19T21:55:51.997Z,212.00
2019-01-19T21:59:58.468Z,232.20
2019-01-19T22:04:05.101Z,220.20
2019-01-19T22:08:11.437Z,214.37
2019-01-19T22:12:21.043Z,215.40
2019-01-19T22:16:27.421Z,234.73
2019-01-19T22:20:36.913Z,227.60
2019-01-19T22:24:43.287Z,212.27
2019-01-19T22:28:51.580Z,225.63
2019-01-19T22:32:58.003Z,226.13
2019-01-19T22:37:04.973Z,227.67
2019-01-19T22:41:12.699Z,228.73
2019-01-19T22:45:21.337Z,210.73
2019-01-19T22:49:27.652Z,219.90
2019-01-19T22:53:34.210Z,214.13
2019-01-19T22:57:42.407Z,229.90
2019-01-19T23:01:57.081Z,224.50
2019-01-19T23:06:03.725Z,225.00
2019-01-19T23:10:10.619Z,207.03
2019-01-19T23:14:16.979Z,245.83
2019-01-19T23:18:23.881Z,227.23
2019-01-19T23:22:30.407Z,237.40
2019-01-19T23:26:37.408Z,232.70
2019-01-19T23:30:43.732Z,272.17
2019-01-19T23:34:50.834Z,264.83
2019-01-19T23:38:57.200Z,244.90
2019-01-19T23:43:04.058Z,226.47
2019-01-19T23:47:11.634Z,242.63
2019-01-19T23:51:19.351Z,226.77
2019-01-19T23:55:25.620Z,230.17
2019-01-19T23:59:32.107Z,221.20
